Time;durP1;ratioP1;P1;durP2;ratioP2;P2;SDS_P1;SDS_P2;PMS_P1;PMS_P2;Temp;Humidity;BMP_temperature;BMP_pressure;BME280_temperature;BME280_humidity;BME280_pressure;Samples;Min_cycle;Max_cycle;Signal;HPM_P1;HPM_P2
2021/12/02 00:00:52;;;;;;;2.53;0.97;;;11.50;55.20;;;;;;4960499;28;20446;-48
2021/12/02 00:03:18;;;;;;;1.50;0.70;;;11.50;54.90;;;;;;4964702;28;20601;-48
2021/12/02 00:05:44;;;;;;;1.50;0.93;;;11.60;54.70;;;;;;4962094;28;20199;-52
2021/12/02 00:08:09;;;;;;;2.80;0.90;;;11.50;54.70;;;;;;4962135;28;20195;-49
2021/12/02 00:10:36;;;;;;;1.67;0.70;;;11.40;54.70;;;;;;4963546;28;20227;-49
2021/12/02 00:13:03;;;;;;;2.50;0.80;;;11.60;54.60;;;;;;4962897;28;20223;-49
2021/12/02 00:15:35;;;;;;;0.90;0.80;;;11.80;54.70;;;;;;4961711;28;20873;-48
2021/12/02 00:23:36;;;;;;;1.57;0.80;;;12.20;53.30;;;;;;4960077;28;20460;-50
2021/12/02 00:26:13;;;;;;;1.00;0.90;;;12.20;53.30;;;;;;4960437;28;20478;-52
2021/12/02 00:28:39;;;;;;;1.00;0.80;;;11.90;53.80;;;;;;4959652;28;20939;-48
2021/12/02 00:31:10;;;;;;;0.73;0.73;;;11.70;54.40;;;;;;4960844;28;20498;-50
2021/12/02 00:33:40;;;;;;;1.67;0.80;;;11.60;54.70;;;;;;4961859;28;20443;-49
2021/12/02 00:36:07;;;;;;;0.80;0.80;;;11.80;54.90;;;;;;4961435;28;20880;-48
2021/12/02 00:38:32;;;;;;;1.10;0.80;;;11.80;54.70;;;;;;4964506;28;20451;-47
2021/12/02 00:40:59;;;;;;;1.73;0.90;;;11.70;54.90;;;;;;4961328;28;20816;-48
2021/12/02 00:43:24;;;;;;;1.00;0.83;;;11.70;55.20;;;;;;4961191;28;20203;-48
2021/12/02 00:45:50;;;;;;;2.30;0.70;;;11.70;55.20;;;;;;4960164;28;20450;-48
2021/12/02 00:48:16;;;;;;;2.30;0.90;;;11.50;55.10;;;;;;4959093;28;20266;-48
2021/12/02 00:50:48;;;;;;;1.90;0.70;;;11.50;55.60;;;;;;4962557;28;20231;-47
2021/12/02 00:53:18;;;;;;;1.73;0.83;;;11.50;55.40;;;;;;4965954;28;20207;-47
2021/12/02 00:55:44;;;;;;;1.00;0.87;;;11.60;55.20;;;;;;4965973;28;20482;-49
2021/12/02 00:58:15;;;;;;;1.13;0.87;;;11.70;55.10;;;;;;4965052;28;20453;-48
2021/12/02 01:00:41;;;;;;;2.90;1.07;;;11.50;54.90;;;;;;4962354;28;20450;-47
2021/12/02 01:03:08;;;;;;;0.97;0.80;;;11.60;55.10;;;;;;4964184;28;20875;-48
2021/12/02 01:05:34;;;;;;;1.30;1.03;;;11.70;54.90;;;;;;4966813;28;20443;-48
2021/12/02 01:08:01;;;;;;;1.93;1.20;;;11.80;54.70;;;;;;4966598;28;21006;-48
2021/12/02 01:10:26;;;;;;;2.03;1.33;;;11.90;54.50;;;;;;4964310;28;20474;-47
2021/12/02 01:12:52;;;;;;;1.57;1.27;;;11.90;54.70;;;;;;4966062;28;20799;-48
2021/12/02 01:15:18;;;;;;;0.83;0.70;;;11.90;55.20;;;;;;4967297;28;20262;-48
2021/12/02 01:17:44;;;;;;;1.30;0.80;;;11.90;55.80;;;;;;4969068;28;20200;-47
2021/12/02 01:20:10;;;;;;;1.10;1.00;;;11.90;56.10;;;;;;4964092;28;20659;-48
2021/12/02 01:22:38;;;;;;;3.23;0.90;;;11.90;56.20;;;;;;4967240;28;20194;-49
2021/12/02 01:25:07;;;;;;;3.23;0.90;;;11.90;56.20;;;;;;4962621;28;20459;-51
2021/12/02 01:27:35;;;;;;;1.40;0.70;;;11.90;56.30;;;;;;4965597;28;21030;-49
2021/12/02 01:30:03;;;;;;;1.67;0.90;;;12.00;56.20;;;;;;4964883;28;20453;-52
2021/12/02 01:32:33;;;;;;;1.37;0.80;;;12.00;56.00;;;;;;4967748;28;20451;-49
2021/12/02 01:35:03;;;;;;;1.23;1.10;;;12.00;56.10;;;;;;4968246;28;20438;-49
2021/12/02 01:37:29;;;;;;;1.67;1.23;;;12.00;56.00;;;;;;4962194;28;20461;-48
2021/12/02 01:39:55;;;;;;;5.47;1.50;;;12.00;56.10;;;;;;4963294;28;20447;-49
2021/12/02 01:42:27;;;;;;;4.80;2.27;;;11.90;56.00;;;;;;4971041;28;20290;-47
2021/12/02 01:44:56;;;;;;;1.63;1.20;;;12.00;56.10;;;;;;4965410;28;20513;-47
2021/12/02 01:47:28;;;;;;;1.67;1.00;;;11.90;55.90;;;;;;4968877;28;20430;-48
2021/12/02 01:50:01;;;;;;;4.43;1.30;;;11.70;55.90;;;;;;4965678;28;20450;-48
2021/12/02 01:52:31;;;;;;;1.80;0.90;;;11.60;56.50;;;;;;4968819;28;20498;-48
2021/12/02 01:55:17;;;;;;;1.53;1.03;;;11.30;56.80;;;;;;4963732;28;20481;-48
2021/12/02 01:57:58;;;;;;;0.90;0.70;;;11.30;56.80;;;;;;4967839;28;20863;-49
2021/12/02 02:00:25;;;;;;;2.40;0.90;;;11.40;56.90;;;;;;4965839;28;20462;-49
2021/12/02 02:02:52;;;;;;;2.30;1.40;;;11.60;56.60;;;;;;4961812;28;20972;-48
2021/12/02 02:05:17;;;;;;;3.80;2.00;;;11.60;56.40;;;;;;4960223;28;20447;-48
2021/12/02 02:07:58;;;;;;;2.30;1.00;;;11.60;56.10;;;;;;4972890;28;20449;-48
2021/12/02 02:10:25;;;;;;;1.13;0.80;;;11.60;56.40;;;;;;4966082;28;20299;-47
2021/12/02 02:12:51;;;;;;;2.47;1.00;;;11.60;56.30;;;;;;4971884;28;21002;-49
2021/12/02 02:15:16;;;;;;;1.43;0.83;;;11.50;56.40;;;;;;4971440;28;20533;-47
2021/12/02 02:17:56;;;;;;;1.13;1.03;;;11.50;56.70;;;;;;4965593;28;20192;-47
2021/12/02 02:20:47;;;;;;;0.90;0.90;;;11.20;56.70;;;;;;4961313;28;20210;-47
2021/12/02 02:23:13;;;;;;;3.67;1.33;;;10.60;57.50;;;;;;4969969;28;20450;-49
2021/12/02 02:25:42;;;;;;;1.33;1.00;;;10.60;58.60;;;;;;4966253;28;20470;-48
2021/12/02 02:28:07;;;;;;;1.17;0.93;;;10.50;58.90;;;;;;4965037;28;20218;-49
2021/12/02 02:30:33;;;;;;;2.13;1.10;;;10.50;58.90;;;;;;4961731;28;20490;-50
2021/12/02 02:32:59;;;;;;;2.40;1.07;;;10.50;59.10;;;;;;4977413;28;20202;-47
2021/12/02 02:35:25;;;;;;;1.00;0.87;;;10.50;59.10;;;;;;4964906;28;20440;-48
2021/12/02 02:37:51;;;;;;;1.50;1.03;;;10.60;58.80;;;;;;4963582;28;20223;-49
2021/12/02 02:40:17;;;;;;;3.20;0.90;;;10.60;58.50;;;;;;4965798;28;20207;-48
2021/12/02 02:42:48;;;;;;;1.67;1.07;;;10.50;58.60;;;;;;4964176;28;20263;-48
2021/12/02 02:45:15;;;;;;;1.27;0.87;;;10.40;58.40;;;;;;4961972;28;20451;-50
2021/12/02 02:47:41;;;;;;;1.67;1.13;;;10.30;58.30;;;;;;4963924;28;20459;-47
2021/12/02 02:50:15;;;;;;;1.93;0.90;;;10.40;58.80;;;;;;4959830;28;20451;-49
2021/12/02 02:52:41;;;;;;;1.77;0.87;;;10.50;58.50;;;;;;4970056;28;20586;-52
2021/12/02 02:55:09;;;;;;;2.17;1.10;;;10.60;58.50;;;;;;4963472;28;20977;-47
2021/12/02 02:57:44;;;;;;;2.50;0.90;;;10.40;58.20;;;;;;4962445;28;20455;-48
2021/12/02 03:00:16;;;;;;;1.80;0.80;;;10.40;58.40;;;;;;4967357;28;20525;-49
2021/12/02 03:03:15;;;;;;;1.03;0.70;;;10.50;58.00;;;;;;4966164;28;20460;-47
2021/12/02 03:06:01;;;;;;;0.90;0.70;;;10.60;57.70;;;;;;4961454;28;20540;-47
2021/12/02 03:08:39;;;;;;;1.93;0.67;;;10.70;57.70;;;;;;4962564;28;20458;-47
2021/12/02 03:11:06;;;;;;;2.87;1.13;;;10.80;57.40;;;;;;4963558;28;20858;-47
2021/12/02 03:13:39;;;;;;;1.47;1.00;;;10.70;57.10;;;;;;4965611;28;20439;-47
2021/12/02 03:18:51;;;;;;;1.87;1.33;;;10.70;57.50;;;;;;4957269;28;20946;-48
2021/12/02 03:21:24;;;;;;;1.73;0.80;;;10.80;57.20;;;;;;4963257;28;20454;-48
2021/12/02 03:23:55;;;;;;;0.90;0.60;;;10.90;57.10;;;;;;4964120;28;20557;-51
2021/12/02 03:26:21;;;;;;;2.33;1.10;;;10.90;57.00;;;;;;4961141;28;20951;-47
2021/12/02 03:28:52;;;;;;;0.70;0.70;;;10.90;56.90;;;;;;4965319;28;20474;-48
2021/12/02 03:31:19;;;;;;;1.63;0.70;;;10.90;56.90;;;;;;4957711;28;20505;-49
2021/12/02 03:33:44;;;;;;;1.00;0.80;;;10.90;56.70;;;;;;4964701;28;20981;-48
2021/12/02 03:36:11;;;;;;;0.80;0.67;;;10.80;56.90;;;;;;4959909;28;20444;-48
2021/12/02 03:38:37;;;;;;;2.83;0.80;;;10.70;56.90;;;;;;4963692;28;20538;-50
2021/12/02 03:41:04;;;;;;;1.10;0.73;;;10.80;56.90;;;;;;4957083;28;20450;-50
2021/12/02 03:43:38;;;;;;;1.63;0.80;;;10.80;56.80;;;;;;4961493;28;20985;-47
2021/12/02 03:46:04;;;;;;;2.07;0.90;;;10.80;56.90;;;;;;4962217;28;20528;-51
2021/12/02 03:48:30;;;;;;;1.27;0.80;;;10.60;57.00;;;;;;4958502;28;20447;-50
2021/12/02 03:50:55;;;;;;;1.27;0.90;;;10.60;57.40;;;;;;4961616;28;20913;-49
2021/12/02 03:53:21;;;;;;;0.83;0.70;;;10.60;57.30;;;;;;4962057;28;20227;-48
2021/12/02 03:55:47;;;;;;;2.03;0.90;;;10.50;57.50;;;;;;4962671;28;20653;-49
2021/12/02 03:58:12;;;;;;;1.50;0.60;;;10.70;57.40;;;;;;4961726;28;20210;-48
2021/12/02 04:00:38;;;;;;;1.53;1.03;;;10.80;57.10;;;;;;4955302;28;20201;-50
2021/12/02 04:03:04;;;;;;;2.10;0.90;;;10.90;57.10;;;;;;4963824;28;20207;-47
2021/12/02 04:05:29;;;;;;;1.70;1.00;;;10.90;57.10;;;;;;4961450;28;20443;-48
2021/12/02 04:07:55;;;;;;;1.20;0.83;;;10.90;56.80;;;;;;4963010;28;20191;-48
2021/12/02 04:10:22;;;;;;;1.00;0.87;;;10.60;57.10;;;;;;4966667;28;20606;-48
2021/12/02 04:15:37;;;;;;;1.10;0.73;;;10.40;57.40;;;;;;4966573;28;20462;-48
2021/12/02 04:18:03;;;;;;;1.73;0.60;;;10.40;57.90;;;;;;4966016;28;20447;-47
2021/12/02 04:20:28;;;;;;;2.23;0.70;;;10.50;58.10;;;;;;4965699;28;20953;-49
2021/12/02 04:22:58;;;;;;;4.13;0.83;;;10.70;57.90;;;;;;4961906;28;20693;-48
2021/12/02 04:25:26;;;;;;;1.07;0.70;;;10.80;57.50;;;;;;4959752;28;20208;-48
2021/12/02 04:27:52;;;;;;;1.23;0.70;;;10.90;57.20;;;;;;4967302;28;20435;-49
2021/12/02 04:30:21;;;;;;;1.80;1.20;;;10.90;57.20;;;;;;4967598;28;20968;-48
2021/12/02 04:32:47;;;;;;;1.23;0.80;;;10.80;57.30;;;;;;4963371;28;20446;-49
2021/12/02 04:35:13;;;;;;;3.07;0.80;;;10.90;57.20;;;;;;4969515;28;20802;-50
2021/12/02 04:37:39;;;;;;;1.03;0.60;;;11.00;57.00;;;;;;4968583;28;20218;-49
2021/12/02 04:40:06;;;;;;;1.00;0.80;;;11.10;56.80;;;;;;4969052;28;20965;-50
2021/12/02 04:42:32;;;;;;;0.80;0.60;;;11.00;56.80;;;;;;4964887;28;20470;-48
2021/12/02 04:44:58;;;;;;;2.77;1.37;;;11.00;56.90;;;;;;4963413;28;20549;-48
2021/12/02 04:47:24;;;;;;;0.90;0.73;;;11.00;56.90;;;;;;4963398;28;20620;-48
2021/12/02 04:49:50;;;;;;;1.13;0.70;;;11.10;56.70;;;;;;4966079;28;20196;-48
2021/12/02 04:52:15;;;;;;;1.00;0.80;;;11.10;56.70;;;;;;4973526;28;20486;-52
2021/12/02 04:54:41;;;;;;;0.97;0.60;;;11.10;56.60;;;;;;4969901;28;20235;-48
2021/12/02 04:57:07;;;;;;;1.60;0.80;;;11.10;56.60;;;;;;4964701;28;20206;-47
2021/12/02 04:59:32;;;;;;;1.50;1.00;;;11.10;56.80;;;;;;4964766;28;20203;-48
2021/12/02 05:01:58;;;;;;;0.60;0.60;;;11.10;56.70;;;;;;4965438;28;20211;-49
2021/12/02 05:04:24;;;;;;;1.53;0.80;;;11.10;57.30;;;;;;4965366;28;20196;-51
2021/12/02 05:06:49;;;;;;;2.63;0.80;;;11.20;56.70;;;;;;4972523;28;20198;-50
2021/12/02 05:09:15;;;;;;;1.17;0.83;;;11.20;56.50;;;;;;4966445;28;20210;-48
2021/12/02 05:11:40;;;;;;;5.67;0.90;;;11.20;56.60;;;;;;4966730;28;20258;-48
2021/12/02 05:14:08;;;;;;;3.70;1.10;;;11.20;56.50;;;;;;4961614;28;20207;-48
2021/12/02 05:16:35;;;;;;;1.47;1.30;;;11.30;56.50;;;;;;4969484;28;20234;-47
2021/12/02 05:19:01;;;;;;;1.30;1.20;;;11.30;56.50;;;;;;4966268;28;20875;-50
2021/12/02 05:21:27;;;;;;;2.20;1.17;;;11.30;56.40;;;;;;4968295;28;20495;-51
2021/12/02 05:23:53;;;;;;;2.70;1.07;;;11.30;56.50;;;;;;4966469;28;20210;-49
2021/12/02 05:26:20;;;;;;;2.17;1.00;;;11.30;56.30;;;;;;4966298;28;20450;-48
2021/12/02 05:28:45;;;;;;;1.53;1.23;;;11.20;56.90;;;;;;4966545;28;20938;-52
2021/12/02 05:31:11;;;;;;;1.93;1.17;;;11.20;56.40;;;;;;4968175;28;20493;-48
2021/12/02 05:33:36;;;;;;;1.33;1.20;;;11.20;56.20;;;;;;4967213;28;21966;-49
2021/12/02 05:36:02;;;;;;;1.00;1.00;;;11.20;56.10;;;;;;4964455;28;20211;-48
2021/12/02 05:38:28;;;;;;;1.80;1.07;;;11.20;55.90;;;;;;4969522;28;20199;-49
2021/12/02 05:40:53;;;;;;;1.80;1.60;;;11.20;56.10;;;;;;4965713;28;20529;-52
2021/12/02 05:43:19;;;;;;;2.07;1.20;;;11.20;56.10;;;;;;4965965;28;20570;-48
2021/12/02 05:45:45;;;;;;;1.63;1.53;;;11.10;56.00;;;;;;4965574;28;20223;-49
2021/12/02 05:48:11;;;;;;;2.90;1.30;;;11.10;56.10;;;;;;4964559;28;20207;-47
2021/12/02 05:50:37;;;;;;;1.63;1.50;;;11.20;56.10;;;;;;4965574;28;20497;-50
2021/12/02 05:53:02;;;;;;;1.60;1.00;;;11.30;56.00;;;;;;4965324;28;20238;-47
2021/12/02 05:55:28;;;;;;;3.53;1.30;;;11.40;56.00;;;;;;4965722;28;20233;-51
2021/12/02 05:57:54;;;;;;;2.70;1.40;;;11.20;55.80;;;;;;4967654;28;20439;-49
2021/12/02 06:00:20;;;;;;;2.47;1.70;;;11.30;55.80;;;;;;4964819;28;20226;-48
2021/12/02 06:02:45;;;;;;;2.23;1.30;;;11.10;55.80;;;;;;4963959;28;20246;-50
2021/12/02 06:05:17;;;;;;;1.13;0.93;;;10.90;56.30;;;;;;4964370;28;20438;-52
2021/12/02 06:07:44;;;;;;;1.60;1.00;;;10.60;56.80;;;;;;4964989;28;20246;-49
2021/12/02 06:10:09;;;;;;;5.73;1.50;;;10.70;56.80;;;;;;4966308;28;20450;-48
2021/12/02 06:12:35;;;;;;;2.40;1.03;;;10.70;56.80;;;;;;4961837;28;21245;-52
2021/12/02 06:15:01;;;;;;;2.33;0.80;;;10.30;56.90;;;;;;4968113;28;20199;-50
2021/12/02 06:17:26;;;;;;;4.83;1.20;;;10.30;57.50;;;;;;4966318;28;20199;-47
2021/12/02 06:19:52;;;;;;;1.40;1.00;;;10.50;57.90;;;;;;4964562;28;20199;-50
2021/12/02 06:22:17;;;;;;;2.50;1.30;;;10.30;58.30;;;;;;4966345;28;20198;-50
2021/12/02 06:24:44;;;;;;;1.20;0.87;;;10.40;58.60;;;;;;4968457;28;20208;-51
2021/12/02 06:27:11;;;;;;;1.10;1.00;;;10.20;58.70;;;;;;4965855;28;20207;-48
2021/12/02 06:29:37;;;;;;;1.10;1.03;;;10.10;58.70;;;;;;4963088;28;20856;-50
2021/12/02 06:32:04;;;;;;;1.30;1.20;;;10.00;59.20;;;;;;4962713;28;20498;-49
2021/12/02 06:34:31;;;;;;;4.53;1.50;;;10.00;59.40;;;;;;4964256;28;21026;-51
2021/12/02 06:36:56;;;;;;;1.73;1.20;;;9.90;60.40;;;;;;4962100;28;20442;-51
2021/12/02 06:39:22;;;;;;;1.00;0.90;;;9.90;61.10;;;;;;4962773;28;20477;-48
2021/12/02 06:41:47;;;;;;;2.33;1.00;;;10.00;59.80;;;;;;4967231;28;20191;-47
2021/12/02 06:44:13;;;;;;;1.67;0.90;;;9.80;60.30;;;;;;4955838;28;20199;-51
2021/12/02 06:46:39;;;;;;;0.87;0.80;;;9.70;60.60;;;;;;4963943;28;20187;-52
2021/12/02 06:49:05;;;;;;;2.03;1.10;;;9.70;61.10;;;;;;4960107;28;20286;-47
2021/12/02 06:51:30;;;;;;;1.00;0.70;;;10.00;59.60;;;;;;4969276;28;20223;-48
2021/12/02 06:53:57;;;;;;;4.37;0.90;;;9.90;60.00;;;;;;4967651;28;20199;-50
2021/12/02 06:56:22;;;;;;;1.27;0.97;;;10.00;59.00;;;;;;4963606;28;20222;-49
2021/12/02 06:58:48;;;;;;;1.70;1.00;;;10.00;58.90;;;;;;4961225;28;20467;-49
2021/12/02 07:01:14;;;;;;;1.00;0.83;;;10.00;58.70;;;;;;4963430;28;20208;-48
2021/12/02 07:03:39;;;;;;;1.90;1.10;;;10.20;58.50;;;;;;4962660;28;20587;-52
2021/12/02 07:06:05;;;;;;;3.33;1.60;;;10.30;58.20;;;;;;4968098;28;20188;-48
2021/12/02 07:08:31;;;;;;;8.27;1.20;;;10.50;57.90;;;;;;4962582;28;20250;-50
2021/12/02 07:10:59;;;;;;;1.47;0.93;;;10.80;57.60;;;;;;4971859;28;20219;-49
2021/12/02 07:13:25;;;;;;;1.30;0.90;;;10.90;57.10;;;;;;4967318;28;20444;-48
2021/12/02 07:15:52;;;;;;;1.50;0.97;;;11.00;56.70;;;;;;4966415;28;20502;-48
2021/12/02 07:18:18;;;;;;;1.13;1.00;;;11.00;56.30;;;;;;4960642;28;20208;-48
2021/12/02 07:20:50;;;;;;;0.83;0.77;;;10.50;56.70;;;;;;4966606;28;20474;-48
2021/12/02 07:23:18;;;;;;;1.20;0.80;;;10.40;57.10;;;;;;4967722;28;20447;-51
2021/12/02 07:25:45;;;;;;;0.93;0.80;;;10.20;57.20;;;;;;4960802;28;20458;-48
2021/12/02 07:28:12;;;;;;;0.97;0.77;;;10.10;57.70;;;;;;4966801;28;20551;-52
2021/12/02 07:30:39;;;;;;;1.83;1.60;;;10.20;57.80;;;;;;4963284;28;20479;-49
2021/12/02 07:33:07;;;;;;;0.70;0.70;;;10.40;57.60;;;;;;4966578;28;20443;-52
2021/12/02 07:35:33;;;;;;;1.20;0.80;;;10.50;57.30;;;;;;4968274;28;20443;-51
2021/12/02 07:38:01;;;;;;;1.13;0.70;;;10.40;56.90;;;;;;4967699;28;20427;-51
2021/12/02 07:40:29;;;;;;;3.50;1.00;;;10.40;57.00;;;;;;4953193;28;20207;-50
2021/12/02 07:42:55;;;;;;;1.90;0.70;;;10.70;57.00;;;;;;4961749;28;20502;-52
2021/12/02 07:45:24;;;;;;;1.50;0.83;;;10.80;56.80;;;;;;4958577;28;20470;-51
2021/12/02 07:47:50;;;;;;;2.93;0.83;;;11.10;56.40;;;;;;4971888;28;20993;-50
2021/12/02 07:50:17;;;;;;;1.67;1.10;;;11.30;56.10;;;;;;4965501;28;20435;-49
2021/12/02 07:52:52;;;;;;;1.90;1.03;;;11.70;55.50;;;;;;4972092;28;20445;-51
2021/12/02 07:55:20;;;;;;;1.20;1.00;;;12.10;53.90;;;;;;4966668;28;20917;-50
2021/12/02 07:57:47;;;;;;;0.80;0.70;;;12.40;53.10;;;;;;4965108;28;20419;-52
2021/12/02 08:00:15;;;;;;;1.30;0.80;;;12.40;52.80;;;;;;4952763;28;20499;-51
2021/12/02 08:02:46;;;;;;;2.40;1.20;;;12.50;52.80;;;;;;4955490;28;20423;-49
2021/12/02 08:05:13;;;;;;;1.30;0.87;;;12.40;52.70;;;;;;4971458;28;20461;-48
2021/12/02 08:07:39;;;;;;;1.00;0.90;;;12.30;53.00;;;;;;4961099;28;20427;-48
2021/12/02 08:10:10;;;;;;;0.90;0.77;;;12.10;53.20;;;;;;4956756;28;20459;-48
2021/12/02 08:12:38;;;;;;;1.97;1.10;;;11.90;53.50;;;;;;4957024;28;20443;-47
2021/12/02 08:15:07;;;;;;;1.10;1.00;;;11.60;54.10;;;;;;4971715;28;20501;-47
2021/12/02 08:17:33;;;;;;;1.60;1.00;;;11.50;54.40;;;;;;4976258;28;20477;-47
2021/12/02 08:19:58;;;;;;;0.80;0.80;;;11.60;54.60;;;;;;4975414;28;20427;-48
2021/12/02 08:22:24;;;;;;;2.20;1.00;;;11.60;54.60;;;;;;4975780;28;20445;-48
2021/12/02 08:24:50;;;;;;;0.97;0.90;;;11.70;54.70;;;;;;4971513;28;20282;-47
2021/12/02 08:27:16;;;;;;;1.00;0.90;;;11.70;54.60;;;;;;4975991;28;20215;-47
2021/12/02 08:29:42;;;;;;;1.10;1.00;;;11.80;54.80;;;;;;4975667;28;20218;-49
2021/12/02 08:32:08;;;;;;;1.33;1.00;;;11.60;54.80;;;;;;4975741;28;20489;-48
2021/12/02 08:34:34;;;;;;;1.30;1.20;;;11.70;55.00;;;;;;4975194;28;20438;-47
2021/12/02 08:37:00;;;;;;;1.27;1.17;;;11.60;54.90;;;;;;4965547;28;20444;-49
2021/12/02 08:39:28;;;;;;;1.23;1.00;;;11.20;54.90;;;;;;4966788;28;20230;-47
2021/12/02 08:41:54;;;;;;;2.10;1.30;;;11.00;55.70;;;;;;4969839;28;20202;-47
2021/12/02 08:44:22;;;;;;;1.50;1.40;;;10.90;55.80;;;;;;4972961;28;20442;-48
2021/12/02 08:46:48;;;;;;;2.10;1.57;;;10.90;56.30;;;;;;4968356;28;21020;-47
2021/12/02 08:49:14;;;;;;;1.30;1.10;;;11.10;56.20;;;;;;4962432;28;20450;-48
2021/12/02 08:51:41;;;;;;;1.43;1.30;;;11.20;56.00;;;;;;4964092;28;20495;-48
2021/12/02 08:54:06;;;;;;;1.30;1.20;;;11.10;55.70;;;;;;4968464;28;20656;-47
2021/12/02 08:56:32;;;;;;;1.23;0.80;;;11.00;56.10;;;;;;4965332;28;20439;-48
2021/12/02 08:58:59;;;;;;;1.37;0.90;;;11.00;56.10;;;;;;4971576;28;20302;-50
2021/12/02 09:01:27;;;;;;;3.17;1.40;;;10.90;56.20;;;;;;4973152;28;20444;-48
2021/12/02 09:03:53;;;;;;;2.53;1.20;;;10.60;56.60;;;;;;4974168;28;20930;-48
2021/12/02 09:06:22;;;;;;;1.10;0.93;;;10.80;56.80;;;;;;4972437;28;20434;-47
2021/12/02 09:08:48;;;;;;;1.60;1.30;;;10.80;56.70;;;;;;4968943;28;20283;-47
2021/12/02 09:11:13;;;;;;;2.10;1.00;;;10.80;56.60;;;;;;4968784;28;20530;-47
2021/12/02 09:13:39;;;;;;;1.13;1.10;;;10.50;56.90;;;;;;4969443;28;20990;-47
2021/12/02 09:16:05;;;;;;;1.10;1.00;;;10.40;57.30;;;;;;4962462;28;20215;-47
2021/12/02 09:18:31;;;;;;;1.73;1.20;;;10.20;57.90;;;;;;4963744;28;20231;-48
2021/12/02 09:20:58;;;;;;;1.00;0.97;;;10.10;58.70;;;;;;4963213;28;20187;-49
2021/12/02 09:23:24;;;;;;;1.50;1.10;;;10.10;58.90;;;;;;4974206;28;20227;-48
2021/12/02 09:25:50;;;;;;;3.53;1.00;;;10.10;59.20;;;;;;4970781;28;20485;-48
2021/12/02 09:28:16;;;;;;;1.70;1.47;;;10.20;59.00;;;;;;4962584;28;20435;-48
2021/12/02 09:30:42;;;;;;;1.40;1.00;;;10.20;59.20;;;;;;4963998;28;20215;-52
2021/12/02 09:33:08;;;;;;;1.40;1.30;;;10.20;59.00;;;;;;4964833;28;20506;-51
2021/12/02 09:35:35;;;;;;;1.97;1.50;;;10.30;58.80;;;;;;4966483;28;20471;-51
2021/12/02 09:38:00;;;;;;;2.47;1.20;;;10.30;58.70;;;;;;4962007;28;20510;-49
2021/12/02 09:40:26;;;;;;;1.17;1.07;;;10.40;58.40;;;;;;4969382;28;20558;-52
2021/12/02 09:42:52;;;;;;;1.90;1.17;;;10.40;58.30;;;;;;4955572;28;20228;-49
2021/12/02 09:45:18;;;;;;;2.33;1.43;;;10.30;58.40;;;;;;4961920;28;20203;-49
2021/12/02 09:47:47;;;;;;;1.50;1.40;;;10.40;58.20;;;;;;4968736;28;20203;-48
2021/12/02 09:50:26;;;;;;;1.97;1.30;;;10.40;58.00;;;;;;4973524;28;20431;-48
2021/12/02 09:52:53;;;;;;;1.37;1.00;;;10.20;58.10;;;;;;4967122;28;20470;-49
2021/12/02 09:58:10;;;;;;;2.10;1.33;;;10.30;58.80;;;;;;4967858;28;21092;-49
2021/12/02 10:00:39;;;;;;;1.97;1.63;;;10.50;58.90;;;;;;4967551;28;20439;-51
2021/12/02 10:03:16;;;;;;;2.57;1.37;;;10.50;58.90;;;;;;4966735;28;20829;-47
2021/12/02 10:05:55;;;;;;;2.40;1.37;;;10.40;59.20;;;;;;4966318;28;20462;-49
2021/12/02 10:08:24;;;;;;;1.40;1.30;;;10.20;59.60;;;;;;4960258;28;20450;-48
2021/12/02 10:10:55;;;;;;;2.73;1.40;;;10.10;61.00;;;;;;4960777;28;20521;-51
2021/12/02 10:13:32;;;;;;;2.30;1.63;;;10.10;61.30;;;;;;4967192;28;20446;-48
2021/12/02 10:16:07;;;;;;;1.27;1.10;;;10.00;60.70;;;;;;4962697;28;20436;-49
2021/12/02 10:19:05;;;;;;;3.60;1.43;;;9.80;61.70;;;;;;4965245;28;20940;-49
2021/12/02 10:24:07;;;;;;;1.13;1.00;;;9.10;63.20;;;;;;4969402;28;20457;-52
2021/12/02 10:26:39;;;;;;;1.53;1.43;;;8.90;64.80;;;;;;4965973;28;20453;-48
2021/12/02 10:29:14;;;;;;;4.63;4.30;;;9.00;65.10;;;;;;4961254;28;20435;-48
2021/12/02 10:31:42;;;;;;;3.77;3.47;;;9.10;65.20;;;;;;4959003;28;20529;-49
2021/12/02 10:34:08;;;;;;;5.97;5.00;;;9.20;65.00;;;;;;4961551;28;20950;-51
2021/12/02 10:36:33;;;;;;;3.17;2.33;;;9.40;64.60;;;;;;4959173;28;20482;-48
2021/12/02 10:39:09;;;;;;;1.70;1.60;;;9.50;64.30;;;;;;4958869;28;20250;-51
2021/12/02 10:41:35;;;;;;;1.60;1.10;;;9.40;64.20;;;;;;4971185;28;20262;-48
2021/12/02 10:44:12;;;;;;;2.23;1.60;;;9.10;64.50;;;;;;4965090;28;20450;-49
2021/12/02 10:46:50;;;;;;;2.40;1.53;;;9.20;65.00;;;;;;4961613;28;20449;-50
2021/12/02 10:49:16;;;;;;;4.17;1.57;;;9.20;65.00;;;;;;4964404;28;21224;-52
2021/12/02 10:51:53;;;;;;;1.20;1.10;;;9.10;65.10;;;;;;4964923;28;20535;-49
2021/12/02 10:54:24;;;;;;;1.50;1.40;;;9.30;65.20;;;;;;4959391;28;21662;-49
2021/12/02 10:57:00;;;;;;;1.40;1.30;;;9.50;64.70;;;;;;4967980;28;20517;-50
2021/12/02 10:59:33;;;;;;;2.00;1.20;;;9.60;64.30;;;;;;4961309;28;20460;-51
2021/12/02 11:02:08;;;;;;;0.97;0.90;;;9.60;64.50;;;;;;4960283;28;20965;-50
2021/12/02 11:04:37;;;;;;;1.30;1.20;;;9.40;64.50;;;;;;4969024;28;20439;-48
2021/12/02 11:07:09;;;;;;;1.17;1.07;;;9.30;64.90;;;;;;4964381;28;20595;-54
2021/12/02 11:09:35;;;;;;;1.47;1.37;;;9.30;65.10;;;;;;4962066;28;20451;-50
2021/12/02 11:12:09;;;;;;;2.10;1.67;;;9.20;65.50;;;;;;4967435;28;21071;-49
2021/12/02 11:14:36;;;;;;;1.33;1.23;;;9.30;65.70;;;;;;4968054;28;20233;-48
2021/12/02 11:17:10;;;;;;;1.43;1.33;;;9.40;65.50;;;;;;4964776;28;20443;-50
2021/12/02 11:19:36;;;;;;;1.40;1.27;;;9.20;65.20;;;;;;4966516;28;20485;-49
2021/12/02 11:22:14;;;;;;;1.30;1.03;;;9.10;65.70;;;;;;4963059;28;20536;-50
2021/12/02 11:24:40;;;;;;;1.53;1.37;;;9.30;65.80;;;;;;4965153;28;20191;-49
2021/12/02 11:27:20;;;;;;;1.73;1.40;;;9.20;65.30;;;;;;4965839;28;20456;-49
2021/12/02 11:29:55;;;;;;;1.43;1.33;;;9.30;65.70;;;;;;4962959;28;20533;-50
2021/12/02 11:32:23;;;;;;;1.30;1.20;;;9.40;65.40;;;;;;4964416;28;20582;-48
2021/12/02 11:35:02;;;;;;;1.40;1.30;;;9.40;64.90;;;;;;4958956;28;20522;-53
2021/12/02 11:37:27;;;;;;;1.93;1.67;;;9.40;65.20;;;;;;4967720;28;20438;-49
2021/12/02 11:39:55;;;;;;;1.43;1.20;;;9.30;64.80;;;;;;4969752;28;20442;-49
2021/12/02 11:42:21;;;;;;;2.03;1.90;;;9.20;64.80;;;;;;4961797;28;20192;-50
2021/12/02 11:44:46;;;;;;;2.33;1.70;;;9.10;65.10;;;;;;4959896;28;20445;-49
2021/12/02 11:47:12;;;;;;;3.30;1.80;;;9.10;65.00;;;;;;4968354;28;20187;-48
2021/12/02 11:49:39;;;;;;;1.03;0.97;;;9.10;64.30;;;;;;4971311;28;20501;-50
2021/12/02 11:52:05;;;;;;;1.50;1.40;;;9.10;64.10;;;;;;4964532;28;20227;-50
2021/12/02 11:54:32;;;;;;;2.30;1.60;;;9.20;64.00;;;;;;4971002;28;20493;-49
2021/12/02 11:56:58;;;;;;;1.53;1.43;;;9.40;63.90;;;;;;4964551;28;20886;-49
2021/12/02 11:59:24;;;;;;;1.37;1.13;;;9.50;63.30;;;;;;4962109;28;20434;-52
2021/12/02 12:02:00;;;;;;;5.00;1.23;;;9.50;63.30;;;;;;4961172;28;20460;-51
2021/12/02 12:04:25;;;;;;;1.40;1.10;;;9.60;62.90;;;;;;4966847;28;22089;-49
2021/12/02 12:07:12;;;;;;;2.10;1.57;;;9.60;62.60;;;;;;4968488;28;20459;-50
2021/12/02 12:09:38;;;;;;;1.57;1.37;;;9.60;62.40;;;;;;4966872;28;20246;-50
2021/12/02 12:12:04;;;;;;;1.40;1.30;;;9.60;62.20;;;;;;4959719;28;20487;-49
2021/12/02 12:14:37;;;;;;;1.50;1.40;;;9.80;62.10;;;;;;4962579;28;20191;-50
2021/12/02 12:17:11;;;;;;;2.13;1.37;;;9.80;61.90;;;;;;4968051;28;20450;-49
2021/12/02 12:19:46;;;;;;;2.97;1.80;;;9.90;62.10;;;;;;4965363;28;20992;-49
2021/12/02 12:22:29;;;;;;;1.77;1.23;;;10.00;60.50;;;;;;4963709;28;21026;-49
2021/12/02 12:25:00;;;;;;;1.57;1.47;;;10.10;60.20;;;;;;4969195;28;20446;-49
2021/12/02 12:27:31;;;;;;;1.40;1.30;;;10.10;60.10;;;;;;4966606;28;20446;-49
2021/12/02 12:30:12;;;;;;;1.57;1.20;;;10.20;60.00;;;;;;4965488;28;20422;-51
2021/12/02 12:33:02;;;;;;;1.50;1.33;;;10.20;59.90;;;;;;4963662;28;20494;-49
2021/12/02 12:38:27;;;;;;;2.73;1.17;;;10.30;60.00;;;;;;4963859;28;20809;-48
2021/12/02 12:41:10;;;;;;;1.83;1.07;;;10.00;60.70;;;;;;4966881;28;20453;-49
2021/12/02 12:43:39;;;;;;;2.30;1.60;;;9.80;62.80;;;;;;4964103;28;20439;-50
2021/12/02 12:46:26;;;;;;;2.37;1.30;;;10.00;61.60;;;;;;4962912;28;21016;-50
2021/12/02 12:48:54;;;;;;;1.50;1.30;;;10.10;61.10;;;;;;4970102;28;20437;-48
2021/12/02 12:51:27;;;;;;;0.90;0.90;;;10.00;60.80;;;;;;4972867;28;20520;-47
2021/12/02 12:53:55;;;;;;;3.00;1.30;;;10.00;60.90;;;;;;4967208;28;20471;-48
2021/12/02 12:56:31;;;;;;;0.90;0.90;;;10.00;60.60;;;;;;4965950;28;20455;-48
2021/12/02 12:59:00;;;;;;;2.83;1.80;;;10.00;61.10;;;;;;4964488;28;20814;-48
2021/12/02 13:01:28;;;;;;;1.20;1.10;;;9.90;62.20;;;;;;4971328;28;20458;-47
2021/12/02 13:04:08;;;;;;;3.00;1.40;;;10.00;61.00;;;;;;4965498;28;21020;-50
2021/12/02 13:06:58;;;;;;;2.07;1.10;;;9.90;62.30;;;;;;4971575;28;21073;-49
2021/12/02 13:09:52;;;;;;;1.43;1.27;;;9.80;62.50;;;;;;4970637;28;20446;-49
2021/12/02 13:12:20;;;;;;;1.43;1.33;;;9.90;62.60;;;;;;4961845;28;21018;-49
2021/12/02 13:14:50;;;;;;;2.10;1.60;;;9.80;62.80;;;;;;4966301;28;20432;-50